sensor_id;sensor_type;location;lat;lon;timestamp;P1;durP1;ratioP1;P2;durP2;ratioP2
3995;SDS011;2012;49.794;9.722;2023-04-24T00:01:15;2.40;;;1.13;;
3995;SDS011;2012;49.794;9.722;2023-04-24T00:03:43;1.60;;;0.97;;
3995;SDS011;2012;49.794;9.722;2023-04-24T00:06:10;2.93;;;1.00;;
3995;SDS011;2012;49.794;9.722;2023-04-24T00:08:37;5.87;;;1.77;;
3995;SDS011;2012;49.794;9.722;2023-04-24T00:11:03;1.27;;;0.90;;
3995;SDS011;2012;49.794;9.722;2023-04-24T00:13:30;1.47;;;1.03;;
3995;SDS011;2012;49.794;9.722;2023-04-24T00:15:57;2.10;;;0.97;;
3995;SDS011;2012;49.794;9.722;2023-04-24T00:18:24;3.33;;;1.10;;
3995;SDS011;2012;49.794;9.722;2023-04-24T00:20:51;1.00;;;1.00;;
3995;SDS011;2012;49.794;9.722;2023-04-24T00:23:18;3.40;;;1.00;;
3995;SDS011;2012;49.794;9.722;2023-04-24T00:25:45;2.80;;;1.20;;
3995;SDS011;2012;49.794;9.722;2023-04-24T00:28:11;3.40;;;1.13;;
3995;SDS011;2012;49.794;9.722;2023-04-24T00:30:39;1.93;;;1.10;;
3995;SDS011;2012;49.794;9.722;2023-04-24T00:33:06;1.83;;;1.27;;
3995;SDS011;2012;49.794;9.722;2023-04-24T00:35:33;1.23;;;0.97;;
3995;SDS011;2012;49.794;9.722;2023-04-24T00:38:00;3.87;;;1.40;;
3995;SDS011;2012;49.794;9.722;2023-04-24T00:40:27;1.40;;;1.07;;
3995;SDS011;2012;49.794;9.722;2023-04-24T00:42:54;2.70;;;0.90;;
3995;SDS011;2012;49.794;9.722;2023-04-24T00:45:22;2.80;;;1.30;;
3995;SDS011;2012;49.794;9.722;2023-04-24T00:47:48;1.47;;;0.90;;
3995;SDS011;2012;49.794;9.722;2023-04-24T00:50:18;1.00;;;0.90;;
3995;SDS011;2012;49.794;9.722;2023-04-24T00:52:47;3.63;;;1.10;;
3995;SDS011;2012;49.794;9.722;2023-04-24T00:55:15;1.27;;;1.00;;
3995;SDS011;2012;49.794;9.722;2023-04-24T00:57:42;1.30;;;0.83;;
3995;SDS011;2012;49.794;9.722;2023-04-24T01:00:10;3.20;;;1.10;;
3995;SDS011;2012;49.794;9.722;2023-04-24T01:02:39;2.73;;;0.90;;
3995;SDS011;2012;49.794;9.722;2023-04-24T01:05:13;2.00;;;1.00;;
3995;SDS011;2012;49.794;9.722;2023-04-24T01:07:43;3.40;;;1.10;;
3995;SDS011;2012;49.794;9.722;2023-04-24T01:10:12;1.30;;;1.00;;
3995;SDS011;2012;49.794;9.722;2023-04-24T01:12:40;2.20;;;1.20;;
3995;SDS011;2012;49.794;9.722;2023-04-24T01:15:07;1.00;;;0.90;;
3995;SDS011;2012;49.794;9.722;2023-04-24T01:17:35;4.30;;;0.90;;
3995;SDS011;2012;49.794;9.722;2023-04-24T01:20:02;3.53;;;1.00;;
3995;SDS011;2012;49.794;9.722;2023-04-24T01:22:35;4.40;;;0.90;;
3995;SDS011;2012;49.794;9.722;2023-04-24T01:25:03;1.77;;;0.90;;
3995;SDS011;2012;49.794;9.722;2023-04-24T01:27:31;5.30;;;1.17;;
3995;SDS011;2012;49.794;9.722;2023-04-24T01:29:58;1.77;;;0.90;;
3995;SDS011;2012;49.794;9.722;2023-04-24T01:32:25;3.80;;;0.90;;
3995;SDS011;2012;49.794;9.722;2023-04-24T01:34:53;3.07;;;0.90;;
3995;SDS011;2012;49.794;9.722;2023-04-24T01:37:21;2.00;;;0.90;;
3995;SDS011;2012;49.794;9.722;2023-04-24T01:39:48;5.87;;;1.17;;
3995;SDS011;2012;49.794;9.722;2023-04-24T01:42:15;3.53;;;1.63;;
3995;SDS011;2012;49.794;9.722;2023-04-24T01:44:45;0.93;;;0.83;;
3995;SDS011;2012;49.794;9.722;2023-04-24T01:47:12;2.13;;;1.00;;
3995;SDS011;2012;49.794;9.722;2023-04-24T01:49:39;0.80;;;0.80;;
3995;SDS011;2012;49.794;9.722;2023-04-24T01:52:07;2.80;;;1.10;;
3995;SDS011;2012;49.794;9.722;2023-04-24T01:54:34;1.77;;;0.83;;
3995;SDS011;2012;49.794;9.722;2023-04-24T01:57:00;2.07;;;0.90;;
3995;SDS011;2012;49.794;9.722;2023-04-24T01:59:29;1.47;;;0.70;;
3995;SDS011;2012;49.794;9.722;2023-04-24T02:01:57;1.27;;;0.80;;
3995;SDS011;2012;49.794;9.722;2023-04-24T02:04:24;1.90;;;0.90;;
3995;SDS011;2012;49.794;9.722;2023-04-24T02:06:51;3.13;;;0.90;;
3995;SDS011;2012;49.794;9.722;2023-04-24T02:09:17;2.47;;;0.90;;
3995;SDS011;2012;49.794;9.722;2023-04-24T02:11:44;1.03;;;0.90;;
3995;SDS011;2012;49.794;9.722;2023-04-24T02:14:11;1.17;;;0.87;;
3995;SDS011;2012;49.794;9.722;2023-04-24T02:16:38;3.47;;;1.03;;
3995;SDS011;2012;49.794;9.722;2023-04-24T02:19:05;1.30;;;0.87;;
3995;SDS011;2012;49.794;9.722;2023-04-24T02:21:32;2.43;;;0.90;;
3995;SDS011;2012;49.794;9.722;2023-04-24T02:24:00;1.13;;;0.80;;
3995;SDS011;2012;49.794;9.722;2023-04-24T02:26:27;2.70;;;0.80;;
3995;SDS011;2012;49.794;9.722;2023-04-24T02:28:54;1.23;;;0.80;;
3995;SDS011;2012;49.794;9.722;2023-04-24T02:31:21;1.53;;;0.80;;
3995;SDS011;2012;49.794;9.722;2023-04-24T02:33:47;4.83;;;1.30;;
3995;SDS011;2012;49.794;9.722;2023-04-24T02:36:14;2.60;;;1.20;;
3995;SDS011;2012;49.794;9.722;2023-04-24T02:38:41;4.23;;;0.90;;
3995;SDS011;2012;49.794;9.722;2023-04-24T02:41:08;3.00;;;0.80;;
3995;SDS011;2012;49.794;9.722;2023-04-24T02:43:34;3.00;;;1.03;;
3995;SDS011;2012;49.794;9.722;2023-04-24T02:46:01;2.30;;;0.97;;
3995;SDS011;2012;49.794;9.722;2023-04-24T02:48:29;1.97;;;0.90;;
3995;SDS011;2012;49.794;9.722;2023-04-24T02:50:56;3.40;;;1.50;;
3995;SDS011;2012;49.794;9.722;2023-04-24T02:53:23;1.80;;;1.03;;
3995;SDS011;2012;49.794;9.722;2023-04-24T02:55:50;2.97;;;1.00;;
3995;SDS011;2012;49.794;9.722;2023-04-24T02:58:17;4.20;;;1.00;;
3995;SDS011;2012;49.794;9.722;2023-04-24T03:00:46;8.07;;;1.30;;
3995;SDS011;2012;49.794;9.722;2023-04-24T03:03:13;0.90;;;0.80;;
3995;SDS011;2012;49.794;9.722;2023-04-24T03:05:41;1.90;;;1.03;;
3995;SDS011;2012;49.794;9.722;2023-04-24T03:08:08;3.63;;;1.60;;
3995;SDS011;2012;49.794;9.722;2023-04-24T03:10:35;1.20;;;0.90;;
3995;SDS011;2012;49.794;9.722;2023-04-24T03:13:01;0.83;;;0.80;;
3995;SDS011;2012;49.794;9.722;2023-04-24T03:15:28;3.00;;;0.90;;
3995;SDS011;2012;49.794;9.722;2023-04-24T03:17:55;11.10;;;1.37;;
3995;SDS011;2012;49.794;9.722;2023-04-24T03:20:22;5.77;;;0.90;;
3995;SDS011;2012;49.794;9.722;2023-04-24T03:22:50;1.73;;;0.90;;
3995;SDS011;2012;49.794;9.722;2023-04-24T03:25:17;2.33;;;1.00;;
3995;SDS011;2012;49.794;9.722;2023-04-24T03:27:44;3.73;;;0.93;;
3995;SDS011;2012;49.794;9.722;2023-04-24T03:30:19;3.43;;;0.90;;
3995;SDS011;2012;49.794;9.722;2023-04-24T03:32:53;2.57;;;1.00;;
3995;SDS011;2012;49.794;9.722;2023-04-24T03:35:24;1.83;;;0.90;;
3995;SDS011;2012;49.794;9.722;2023-04-24T03:37:52;2.17;;;1.00;;
3995;SDS011;2012;49.794;9.722;2023-04-24T03:40:57;4.60;;;1.50;;
3995;SDS011;2012;49.794;9.722;2023-04-24T03:43:34;5.13;;;1.10;;
3995;SDS011;2012;49.794;9.722;2023-04-24T03:46:02;2.50;;;0.93;;
3995;SDS011;2012;49.794;9.722;2023-04-24T03:48:32;4.03;;;1.07;;
3995;SDS011;2012;49.794;9.722;2023-04-24T03:51:00;3.93;;;0.90;;
3995;SDS011;2012;49.794;9.722;2023-04-24T03:53:28;1.73;;;0.90;;
3995;SDS011;2012;49.794;9.722;2023-04-24T03:55:55;5.47;;;1.10;;
3995;SDS011;2012;49.794;9.722;2023-04-24T03:58:23;2.37;;;0.80;;
3995;SDS011;2012;49.794;9.722;2023-04-24T04:00:51;8.57;;;1.10;;
3995;SDS011;2012;49.794;9.722;2023-04-24T04:03:38;4.67;;;1.10;;
3995;SDS011;2012;49.794;9.722;2023-04-24T04:06:06;2.10;;;0.93;;
3995;SDS011;2012;49.794;9.722;2023-04-24T04:08:33;1.57;;;1.00;;
3995;SDS011;2012;49.794;9.722;2023-04-24T04:11:00;3.53;;;1.00;;
3995;SDS011;2012;49.794;9.722;2023-04-24T04:13:30;2.13;;;0.83;;
3995;SDS011;2012;49.794;9.722;2023-04-24T04:15:57;2.10;;;0.93;;
3995;SDS011;2012;49.794;9.722;2023-04-24T04:18:24;3.20;;;0.87;;
3995;SDS011;2012;49.794;9.722;2023-04-24T04:20:51;1.07;;;0.80;;
3995;SDS011;2012;49.794;9.722;2023-04-24T04:23:18;1.93;;;0.80;;
3995;SDS011;2012;49.794;9.722;2023-04-24T04:25:54;3.43;;;2.33;;
3995;SDS011;2012;49.794;9.722;2023-04-24T04:28:25;2.50;;;1.00;;
3995;SDS011;2012;49.794;9.722;2023-04-24T04:30:52;5.00;;;0.90;;
3995;SDS011;2012;49.794;9.722;2023-04-24T04:33:24;2.90;;;1.23;;
3995;SDS011;2012;49.794;9.722;2023-04-24T04:35:52;4.30;;;1.30;;
3995;SDS011;2012;49.794;9.722;2023-04-24T04:38:20;3.30;;;1.30;;
3995;SDS011;2012;49.794;9.722;2023-04-24T04:40:55;3.23;;;1.63;;
3995;SDS011;2012;49.794;9.722;2023-04-24T04:43:26;4.17;;;1.87;;
3995;SDS011;2012;49.794;9.722;2023-04-24T04:45:53;1.10;;;1.00;;
3995;SDS011;2012;49.794;9.722;2023-04-24T04:48:34;3.37;;;1.00;;
3995;SDS011;2012;49.794;9.722;2023-04-24T04:51:04;1.80;;;1.00;;
3995;SDS011;2012;49.794;9.722;2023-04-24T04:53:31;7.90;;;1.20;;
3995;SDS011;2012;49.794;9.722;2023-04-24T04:55:58;1.33;;;0.90;;
3995;SDS011;2012;49.794;9.722;2023-04-24T04:58:35;2.30;;;1.23;;
3995;SDS011;2012;49.794;9.722;2023-04-24T05:01:03;9.93;;;1.20;;
3995;SDS011;2012;49.794;9.722;2023-04-24T05:03:35;1.77;;;1.13;;
3995;SDS011;2012;49.794;9.722;2023-04-24T05:06:07;2.10;;;1.10;;
3995;SDS011;2012;49.794;9.722;2023-04-24T05:08:36;1.40;;;1.03;;
3995;SDS011;2012;49.794;9.722;2023-04-24T05:11:06;3.60;;;1.10;;
3995;SDS011;2012;49.794;9.722;2023-04-24T05:13:33;2.20;;;0.90;;
3995;SDS011;2012;49.794;9.722;2023-04-24T05:16:17;1.30;;;0.90;;
3995;SDS011;2012;49.794;9.722;2023-04-24T05:18:44;2.60;;;1.20;;
3995;SDS011;2012;49.794;9.722;2023-04-24T05:21:14;1.73;;;0.90;;
3995;SDS011;2012;49.794;9.722;2023-04-24T05:23:45;5.23;;;1.10;;
3995;SDS011;2012;49.794;9.722;2023-04-24T05:26:17;0.80;;;0.80;;
3995;SDS011;2012;49.794;9.722;2023-04-24T05:28:45;1.00;;;0.90;;
3995;SDS011;2012;49.794;9.722;2023-04-24T05:31:14;1.40;;;1.20;;
3995;SDS011;2012;49.794;9.722;2023-04-24T05:33:40;2.60;;;0.80;;
3995;SDS011;2012;49.794;9.722;2023-04-24T05:36:07;1.33;;;1.00;;
3995;SDS011;2012;49.794;9.722;2023-04-24T05:38:35;2.23;;;1.30;;
3995;SDS011;2012;49.794;9.722;2023-04-24T05:41:01;3.87;;;0.97;;
3995;SDS011;2012;49.794;9.722;2023-04-24T05:43:28;4.90;;;1.20;;
3995;SDS011;2012;49.794;9.722;2023-04-24T05:45:55;1.10;;;0.97;;
3995;SDS011;2012;49.794;9.722;2023-04-24T05:48:22;1.63;;;1.10;;
3995;SDS011;2012;49.794;9.722;2023-04-24T05:50:49;1.43;;;1.30;;
3995;SDS011;2012;49.794;9.722;2023-04-24T05:53:16;2.23;;;1.00;;
3995;SDS011;2012;49.794;9.722;2023-04-24T05:55:43;1.57;;;1.30;;
3995;SDS011;2012;49.794;9.722;2023-04-24T05:58:11;4.20;;;1.50;;
3995;SDS011;2012;49.794;9.722;2023-04-24T06:00:38;1.10;;;1.00;;
3995;SDS011;2012;49.794;9.722;2023-04-24T06:03:08;1.20;;;1.10;;
3995;SDS011;2012;49.794;9.722;2023-04-24T06:05:36;2.80;;;1.87;;
3995;SDS011;2012;49.794;9.722;2023-04-24T06:08:03;3.67;;;1.50;;
3995;SDS011;2012;49.794;9.722;2023-04-24T06:10:34;2.33;;;1.63;;
3995;SDS011;2012;49.794;9.722;2023-04-24T06:13:02;5.03;;;2.30;;
3995;SDS011;2012;49.794;9.722;2023-04-24T06:15:30;3.10;;;1.83;;
3995;SDS011;2012;49.794;9.722;2023-04-24T06:18:05;4.83;;;1.60;;
3995;SDS011;2012;49.794;9.722;2023-04-24T06:20:33;8.07;;;2.20;;
3995;SDS011;2012;49.794;9.722;2023-04-24T06:23:00;3.27;;;2.13;;
3995;SDS011;2012;49.794;9.722;2023-04-24T06:25:28;3.00;;;1.40;;
3995;SDS011;2012;49.794;9.722;2023-04-24T06:27:55;2.80;;;1.50;;
3995;SDS011;2012;49.794;9.722;2023-04-24T06:30:22;3.17;;;2.00;;
3995;SDS011;2012;49.794;9.722;2023-04-24T06:32:50;2.47;;;2.10;;
3995;SDS011;2012;49.794;9.722;2023-04-24T06:35:17;3.53;;;2.43;;
3995;SDS011;2012;49.794;9.722;2023-04-24T06:37:44;1.73;;;1.63;;
3995;SDS011;2012;49.794;9.722;2023-04-24T06:40:12;2.57;;;1.70;;
3995;SDS011;2012;49.794;9.722;2023-04-24T06:42:38;3.47;;;1.67;;
3995;SDS011;2012;49.794;9.722;2023-04-24T06:45:07;7.90;;;3.00;;
3995;SDS011;2012;49.794;9.722;2023-04-24T06:47:34;5.23;;;2.70;;
3995;SDS011;2012;49.794;9.722;2023-04-24T06:50:01;2.67;;;2.27;;
3995;SDS011;2012;49.794;9.722;2023-04-24T06:52:28;2.00;;;1.53;;
3995;SDS011;2012;49.794;9.722;2023-04-24T06:54:59;1.63;;;1.53;;
3995;SDS011;2012;49.794;9.722;2023-04-24T06:57:30;3.57;;;1.70;;
3995;SDS011;2012;49.794;9.722;2023-04-24T06:59:57;1.30;;;1.20;;
3995;SDS011;2012;49.794;9.722;2023-04-24T07:02:24;2.13;;;1.40;;
3995;SDS011;2012;49.794;9.722;2023-04-24T07:04:51;3.10;;;1.40;;
3995;SDS011;2012;49.794;9.722;2023-04-24T07:07:19;17.23;;;1.87;;
3995;SDS011;2012;49.794;9.722;2023-04-24T07:09:50;1.80;;;1.70;;
3995;SDS011;2012;49.794;9.722;2023-04-24T07:12:17;2.10;;;1.50;;
3995;SDS011;2012;49.794;9.722;2023-04-24T07:14:46;2.33;;;1.67;;
3995;SDS011;2012;49.794;9.722;2023-04-24T07:17:14;1.67;;;1.57;;
3995;SDS011;2012;49.794;9.722;2023-04-24T07:19:41;2.50;;;2.00;;
3995;SDS011;2012;49.794;9.722;2023-04-24T07:22:09;2.17;;;1.93;;
3995;SDS011;2012;49.794;9.722;2023-04-24T07:24:39;5.03;;;1.87;;
3995;SDS011;2012;49.794;9.722;2023-04-24T07:27:06;2.73;;;1.67;;
3995;SDS011;2012;49.794;9.722;2023-04-24T07:29:33;3.97;;;2.37;;
3995;SDS011;2012;49.794;9.722;2023-04-24T07:31:59;4.47;;;1.93;;
3995;SDS011;2012;49.794;9.722;2023-04-24T07:34:29;2.00;;;1.80;;
3995;SDS011;2012;49.794;9.722;2023-04-24T07:36:56;5.00;;;2.60;;
3995;SDS011;2012;49.794;9.722;2023-04-24T07:39:23;2.30;;;2.10;;
3995;SDS011;2012;49.794;9.722;2023-04-24T07:41:50;1.70;;;1.60;;
3995;SDS011;2012;49.794;9.722;2023-04-24T07:44:17;1.50;;;1.40;;
3995;SDS011;2012;49.794;9.722;2023-04-24T07:46:44;3.63;;;2.10;;
3995;SDS011;2012;49.794;9.722;2023-04-24T07:49:11;1.97;;;1.60;;
3995;SDS011;2012;49.794;9.722;2023-04-24T07:51:40;2.40;;;2.20;;
3995;SDS011;2012;49.794;9.722;2023-04-24T07:54:07;1.93;;;1.80;;
3995;SDS011;2012;49.794;9.722;2023-04-24T07:56:34;2.33;;;2.13;;
3995;SDS011;2012;49.794;9.722;2023-04-24T07:59:05;4.23;;;2.37;;
3995;SDS011;2012;49.794;9.722;2023-04-24T08:01:32;2.43;;;2.07;;
3995;SDS011;2012;49.794;9.722;2023-04-24T08:03:59;2.80;;;2.00;;
3995;SDS011;2012;49.794;9.722;2023-04-24T08:06:26;3.33;;;1.90;;
3995;SDS011;2012;49.794;9.722;2023-04-24T08:08:56;4.37;;;2.20;;
3995;SDS011;2012;49.794;9.722;2023-04-24T08:11:24;2.00;;;1.90;;
3995;SDS011;2012;49.794;9.722;2023-04-24T08:13:51;3.83;;;1.60;;
3995;SDS011;2012;49.794;9.722;2023-04-24T08:16:18;3.03;;;2.10;;
3995;SDS011;2012;49.794;9.722;2023-04-24T08:18:45;2.60;;;1.70;;
3995;SDS011;2012;49.794;9.722;2023-04-24T08:21:12;3.97;;;1.90;;
3995;SDS011;2012;49.794;9.722;2023-04-24T08:23:44;3.83;;;1.67;;
3995;SDS011;2012;49.794;9.722;2023-04-24T08:26:12;3.37;;;1.93;;
3995;SDS011;2012;49.794;9.722;2023-04-24T08:28:39;3.57;;;1.70;;
3995;SDS011;2012;49.794;9.722;2023-04-24T08:31:06;3.23;;;1.60;;
3995;SDS011;2012;49.794;9.722;2023-04-24T08:33:33;2.40;;;1.90;;
3995;SDS011;2012;49.794;9.722;2023-04-24T08:36:03;2.43;;;2.13;;
3995;SDS011;2012;49.794;9.722;2023-04-24T08:38:31;1.93;;;1.53;;
3995;SDS011;2012;49.794;9.722;2023-04-24T08:40:58;4.17;;;1.67;;
3995;SDS011;2012;49.794;9.722;2023-04-24T08:43:26;2.40;;;1.60;;
3995;SDS011;2012;49.794;9.722;2023-04-24T08:45:55;3.57;;;1.47;;
3995;SDS011;2012;49.794;9.722;2023-04-24T08:48:23;1.70;;;1.33;;
3995;SDS011;2012;49.794;9.722;2023-04-24T08:50:57;1.57;;;1.47;;
3995;SDS011;2012;49.794;9.722;2023-04-24T08:53:25;2.47;;;1.30;;
3995;SDS011;2012;49.794;9.722;2023-04-24T08:55:54;1.83;;;1.10;;
3995;SDS011;2012;49.794;9.722;2023-04-24T08:58:24;1.93;;;1.30;;
3995;SDS011;2012;49.794;9.722;2023-04-24T09:00:55;1.50;;;1.40;;
3995;SDS011;2012;49.794;9.722;2023-04-24T09:03:23;3.00;;;1.30;;
3995;SDS011;2012;49.794;9.722;2023-04-24T09:05:50;2.20;;;1.20;;
3995;SDS011;2012;49.794;9.722;2023-04-24T09:08:20;2.57;;;1.63;;
3995;SDS011;2012;49.794;9.722;2023-04-24T09:10:51;1.37;;;1.27;;
3995;SDS011;2012;49.794;9.722;2023-04-24T09:13:18;1.97;;;1.20;;
3995;SDS011;2012;49.794;9.722;2023-04-24T09:15:46;1.23;;;1.13;;
3995;SDS011;2012;49.794;9.722;2023-04-24T09:18:13;14.13;;;1.40;;
3995;SDS011;2012;49.794;9.722;2023-04-24T09:21:03;3.90;;;1.30;;
3995;SDS011;2012;49.794;9.722;2023-04-24T09:23:29;1.63;;;1.23;;
3995;SDS011;2012;49.794;9.722;2023-04-24T09:25:58;1.93;;;1.10;;
3995;SDS011;2012;49.794;9.722;2023-04-24T09:31:04;1.40;;;1.30;;
3995;SDS011;2012;49.794;9.722;2023-04-24T09:33:54;3.60;;;1.20;;
3995;SDS011;2012;49.794;9.722;2023-04-24T09:39:01;1.40;;;1.30;;
3995;SDS011;2012;49.794;9.722;2023-04-24T09:41:29;1.43;;;1.33;;
3995;SDS011;2012;49.794;9.722;2023-04-24T09:43:56;1.03;;;0.93;;
3995;SDS011;2012;49.794;9.722;2023-04-24T09:46:30;1.87;;;1.10;;
3995;SDS011;2012;49.794;9.722;2023-04-24T09:49:10;6.20;;;1.60;;
3995;SDS011;2012;49.794;9.722;2023-04-24T09:51:41;4.80;;;1.50;;
3995;SDS011;2012;49.794;9.722;2023-04-24T09:54:15;1.80;;;1.50;;
3995;SDS011;2012;49.794;9.722;2023-04-24T09:56:45;1.47;;;1.20;;
3995;SDS011;2012;49.794;9.722;2023-04-24T09:59:14;3.90;;;1.77;;
3995;SDS011;2012;49.794;9.722;2023-04-24T10:01:43;1.77;;;1.10;;
3995;SDS011;2012;49.794;9.722;2023-04-24T10:04:21;1.43;;;1.33;;
3995;SDS011;2012;49.794;9.722;2023-04-24T10:06:51;4.00;;;1.43;;
3995;SDS011;2012;49.794;9.722;2023-04-24T10:09:19;2.50;;;1.63;;
3995;SDS011;2012;49.794;9.722;2023-04-24T10:11:48;2.00;;;1.60;;
3995;SDS011;2012;49.794;9.722;2023-04-24T10:14:18;1.90;;;1.40;;
3995;SDS011;2012;49.794;9.722;2023-04-24T10:16:50;1.60;;;1.50;;
3995;SDS011;2012;49.794;9.722;2023-04-24T10:19:19;1.53;;;1.43;;
3995;SDS011;2012;49.794;9.722;2023-04-24T10:21:46;3.33;;;1.47;;
3995;SDS011;2012;49.794;9.722;2023-04-24T10:24:14;2.03;;;1.70;;
3995;SDS011;2012;49.794;9.722;2023-04-24T10:26:43;2.13;;;1.77;;
3995;SDS011;2012;49.794;9.722;2023-04-24T10:29:15;3.13;;;1.83;;
3995;SDS011;2012;49.794;9.722;2023-04-24T10:31:43;2.33;;;1.40;;
3995;SDS011;2012;49.794;9.722;2023-04-24T10:34:12;4.43;;;1.60;;
3995;SDS011;2012;49.794;9.722;2023-04-24T10:36:42;1.30;;;1.20;;
3995;SDS011;2012;49.794;9.722;2023-04-24T10:39:12;2.63;;;1.67;;
3995;SDS011;2012;49.794;9.722;2023-04-24T10:41:41;2.73;;;1.70;;
3995;SDS011;2012;49.794;9.722;2023-04-24T10:44:09;1.47;;;1.37;;
3995;SDS011;2012;49.794;9.722;2023-04-24T10:46:44;3.07;;;1.70;;
3995;SDS011;2012;49.794;9.722;2023-04-24T10:49:12;2.43;;;1.60;;
3995;SDS011;2012;49.794;9.722;2023-04-24T10:51:44;1.73;;;1.30;;
3995;SDS011;2012;49.794;9.722;2023-04-24T10:59:48;1.87;;;1.20;;
3995;SDS011;2012;49.794;9.722;2023-04-24T11:02:17;3.53;;;1.50;;
3995;SDS011;2012;49.794;9.722;2023-04-24T11:04:44;5.17;;;1.70;;
3995;SDS011;2012;49.794;9.722;2023-04-24T11:07:12;3.47;;;1.83;;
3995;SDS011;2012;49.794;9.722;2023-04-24T11:09:39;5.63;;;1.57;;
3995;SDS011;2012;49.794;9.722;2023-04-24T11:12:10;3.83;;;1.80;;
3995;SDS011;2012;49.794;9.722;2023-04-24T11:17:35;1.83;;;1.60;;
3995;SDS011;2012;49.794;9.722;2023-04-24T11:20:05;1.43;;;1.30;;
3995;SDS011;2012;49.794;9.722;2023-04-24T11:22:54;1.93;;;1.73;;
3995;SDS011;2012;49.794;9.722;2023-04-24T11:25:22;6.83;;;1.63;;
3995;SDS011;2012;49.794;9.722;2023-04-24T11:27:49;1.60;;;1.10;;
3995;SDS011;2012;49.794;9.722;2023-04-24T11:30:17;1.50;;;1.30;;
3995;SDS011;2012;49.794;9.722;2023-04-24T11:32:52;2.47;;;1.43;;
3995;SDS011;2012;49.794;9.722;2023-04-24T11:35:22;3.33;;;1.60;;
3995;SDS011;2012;49.794;9.722;2023-04-24T11:37:54;3.70;;;1.97;;
3995;SDS011;2012;49.794;9.722;2023-04-24T11:40:24;2.13;;;1.70;;
3995;SDS011;2012;49.794;9.722;2023-04-24T11:42:54;2.37;;;1.07;;
3995;SDS011;2012;49.794;9.722;2023-04-24T11:45:26;1.17;;;1.07;;
3995;SDS011;2012;49.794;9.722;2023-04-24T11:47:54;1.33;;;1.23;;
3995;SDS011;2012;49.794;9.722;2023-04-24T11:50:22;3.60;;;1.40;;
3995;SDS011;2012;49.794;9.722;2023-04-24T11:52:51;2.00;;;1.40;;
3995;SDS011;2012;49.794;9.722;2023-04-24T11:57:46;1.43;;;1.20;;
3995;SDS011;2012;49.794;9.722;2023-04-24T12:00:18;3.23;;;1.20;;
3995;SDS011;2012;49.794;9.722;2023-04-24T12:02:47;3.53;;;1.37;;
3995;SDS011;2012;49.794;9.722;2023-04-24T12:05:25;1.63;;;1.30;;
3995;SDS011;2012;49.794;9.722;2023-04-24T12:07:53;1.17;;;1.07;;
3995;SDS011;2012;49.794;9.722;2023-04-24T12:10:21;4.00;;;1.70;;
3995;SDS011;2012;49.794;9.722;2023-04-24T12:12:53;3.53;;;1.50;;
3995;SDS011;2012;49.794;9.722;2023-04-24T12:15:21;2.50;;;1.40;;
3995;SDS011;2012;49.794;9.722;2023-04-24T12:17:50;5.03;;;1.37;;
3995;SDS011;2012;49.794;9.722;2023-04-24T12:20:23;1.80;;;1.00;;
3995;SDS011;2012;49.794;9.722;2023-04-24T12:22:55;0.97;;;0.90;;
3995;SDS011;2012;49.794;9.722;2023-04-24T12:25:24;4.10;;;1.20;;
3995;SDS011;2012;49.794;9.722;2023-04-24T12:27:54;1.30;;;1.20;;
3995;SDS011;2012;49.794;9.722;2023-04-24T12:30:46;1.10;;;0.93;;
3995;SDS011;2012;49.794;9.722;2023-04-24T12:33:21;1.13;;;1.00;;
3995;SDS011;2012;49.794;9.722;2023-04-24T12:35:51;1.83;;;1.20;;
3995;SDS011;2012;49.794;9.722;2023-04-24T12:38:23;1.37;;;1.20;;
3995;SDS011;2012;49.794;9.722;2023-04-24T12:43:54;1.30;;;1.13;;
3995;SDS011;2012;49.794;9.722;2023-04-24T12:46:21;1.53;;;1.40;;
3995;SDS011;2012;49.794;9.722;2023-04-24T12:48:48;1.70;;;1.40;;
3995;SDS011;2012;49.794;9.722;2023-04-24T12:51:15;3.23;;;1.20;;
3995;SDS011;2012;49.794;9.722;2023-04-24T12:53:42;1.67;;;1.40;;
3995;SDS011;2012;49.794;9.722;2023-04-24T12:56:09;4.10;;;1.67;;
3995;SDS011;2012;49.794;9.722;2023-04-24T12:58:36;1.50;;;1.30;;
3995;SDS011;2012;49.794;9.722;2023-04-24T13:01:03;2.23;;;1.50;;
3995;SDS011;2012;49.794;9.722;2023-04-24T13:03:30;7.23;;;3.10;;
3995;SDS011;2012;49.794;9.722;2023-04-24T13:05:57;2.30;;;2.10;;
3995;SDS011;2012;49.794;9.722;2023-04-24T13:08:24;2.63;;;2.00;;
3995;SDS011;2012;49.794;9.722;2023-04-24T13:10:51;2.17;;;1.67;;
3995;SDS011;2012;49.794;9.722;2023-04-24T13:13:18;6.23;;;4.83;;
3995;SDS011;2012;49.794;9.722;2023-04-24T13:15:45;6.53;;;2.27;;
3995;SDS011;2012;49.794;9.722;2023-04-24T13:18:11;6.27;;;2.90;;
3995;SDS011;2012;49.794;9.722;2023-04-24T13:20:38;2.43;;;2.23;;
3995;SDS011;2012;49.794;9.722;2023-04-24T13:23:07;3.40;;;2.10;;
3995;SDS011;2012;49.794;9.722;2023-04-24T13:25:35;2.30;;;1.77;;
3995;SDS011;2012;49.794;9.722;2023-04-24T13:28:03;4.40;;;1.80;;
3995;SDS011;2012;49.794;9.722;2023-04-24T13:30:31;2.23;;;2.03;;
3995;SDS011;2012;49.794;9.722;2023-04-24T13:32:58;2.50;;;2.30;;
3995;SDS011;2012;49.794;9.722;2023-04-24T13:35:25;2.00;;;1.90;;
3995;SDS011;2012;49.794;9.722;2023-04-24T13:37:51;4.30;;;2.37;;
3995;SDS011;2012;49.794;9.722;2023-04-24T13:40:18;2.00;;;1.80;;
3995;SDS011;2012;49.794;9.722;2023-04-24T13:42:45;2.20;;;2.00;;
3995;SDS011;2012;49.794;9.722;2023-04-24T13:45:12;3.70;;;1.87;;
3995;SDS011;2012;49.794;9.722;2023-04-24T13:47:50;4.07;;;2.37;;
3995;SDS011;2012;49.794;9.722;2023-04-24T13:50:17;4.93;;;1.67;;
3995;SDS011;2012;49.794;9.722;2023-04-24T13:52:44;2.07;;;1.60;;
3995;SDS011;2012;49.794;9.722;2023-04-24T13:55:12;2.53;;;1.40;;
3995;SDS011;2012;49.794;9.722;2023-04-24T13:57:38;1.93;;;1.83;;
3995;SDS011;2012;49.794;9.722;2023-04-24T14:00:05;2.87;;;1.80;;
3995;SDS011;2012;49.794;9.722;2023-04-24T14:02:36;2.10;;;1.73;;
3995;SDS011;2012;49.794;9.722;2023-04-24T14:05:04;2.40;;;1.80;;
3995;SDS011;2012;49.794;9.722;2023-04-24T14:07:32;1.90;;;1.80;;
3995;SDS011;2012;49.794;9.722;2023-04-24T14:09:59;4.60;;;2.27;;
3995;SDS011;2012;49.794;9.722;2023-04-24T14:12:26;8.10;;;2.50;;
3995;SDS011;2012;49.794;9.722;2023-04-24T14:14:53;1.80;;;1.70;;
3995;SDS011;2012;49.794;9.722;2023-04-24T14:17:20;2.03;;;1.93;;
3995;SDS011;2012;49.794;9.722;2023-04-24T14:19:47;2.13;;;1.93;;
3995;SDS011;2012;49.794;9.722;2023-04-24T14:22:14;2.10;;;2.00;;
3995;SDS011;2012;49.794;9.722;2023-04-24T14:24:41;2.30;;;2.10;;
3995;SDS011;2012;49.794;9.722;2023-04-24T14:27:08;3.37;;;2.13;;
3995;SDS011;2012;49.794;9.722;2023-04-24T14:29:35;4.83;;;2.40;;
3995;SDS011;2012;49.794;9.722;2023-04-24T14:32:03;2.30;;;2.10;;
3995;SDS011;2012;49.794;9.722;2023-04-24T14:34:29;3.50;;;2.50;;
3995;SDS011;2012;49.794;9.722;2023-04-24T14:36:56;4.20;;;2.57;;
3995;SDS011;2012;49.794;9.722;2023-04-24T14:39:25;2.90;;;2.33;;
3995;SDS011;2012;49.794;9.722;2023-04-24T14:41:51;4.77;;;2.93;;
3995;SDS011;2012;49.794;9.722;2023-04-24T14:44:18;4.43;;;2.50;;
3995;SDS011;2012;49.794;9.722;2023-04-24T14:46:45;2.90;;;2.40;;
3995;SDS011;2012;49.794;9.722;2023-04-24T14:49:12;5.90;;;2.77;;
3995;SDS011;2012;49.794;9.722;2023-04-24T14:51:39;4.17;;;2.33;;
3995;SDS011;2012;49.794;9.722;2023-04-24T14:54:06;6.13;;;3.00;;
3995;SDS011;2012;49.794;9.722;2023-04-24T14:56:33;5.03;;;3.10;;
3995;SDS011;2012;49.794;9.722;2023-04-24T14:59:00;3.60;;;2.57;;
3995;SDS011;2012;49.794;9.722;2023-04-24T15:01:27;3.90;;;2.50;;
3995;SDS011;2012;49.794;9.722;2023-04-24T15:03:54;4.33;;;1.97;;
3995;SDS011;2012;49.794;9.722;2023-04-24T15:06:21;5.23;;;2.27;;
3995;SDS011;2012;49.794;9.722;2023-04-24T15:08:48;3.43;;;2.07;;
3995;SDS011;2012;49.794;9.722;2023-04-24T15:11:16;2.87;;;2.00;;
3995;SDS011;2012;49.794;9.722;2023-04-24T15:13:43;3.13;;;2.33;;
3995;SDS011;2012;49.794;9.722;2023-04-24T15:16:13;4.23;;;2.43;;
3995;SDS011;2012;49.794;9.722;2023-04-24T15:18:40;7.63;;;2.10;;
3995;SDS011;2012;49.794;9.722;2023-04-24T15:21:07;2.87;;;2.30;;
3995;SDS011;2012;49.794;9.722;2023-04-24T15:23:34;4.63;;;2.20;;
3995;SDS011;2012;49.794;9.722;2023-04-24T15:26:01;5.87;;;2.60;;
3995;SDS011;2012;49.794;9.722;2023-04-24T15:28:28;4.10;;;2.27;;
3995;SDS011;2012;49.794;9.722;2023-04-24T15:30:55;3.40;;;2.10;;
3995;SDS011;2012;49.794;9.722;2023-04-24T15:33:22;4.90;;;2.77;;
3995;SDS011;2012;49.794;9.722;2023-04-24T15:35:49;5.97;;;2.70;;
3995;SDS011;2012;49.794;9.722;2023-04-24T15:38:16;2.50;;;2.20;;
3995;SDS011;2012;49.794;9.722;2023-04-24T15:40:43;3.57;;;2.57;;
3995;SDS011;2012;49.794;9.722;2023-04-24T15:43:10;4.17;;;2.13;;